Time;durP1;ratioP1;P1;durP2;ratioP2;P2;SDS_P1;SDS_P2;PMS_P1;PMS_P2;Temp;Humidity;BMP_temperature;BMP_pressure;BME280_temperature;BME280_humidity;BME280_pressure;Samples;Min_cycle;Max_cycle;Signal;HPM_P1;HPM_P2
2023/07/07 00:01:07;;;;;;;3.35;2.60;;;12.00;99.90;;;;;;5017367;28;20072;-81
2023/07/07 00:03:34;;;;;;;3.92;2.90;;;12.00;99.90;;;;;;5021389;28;20469;-81
2023/07/07 00:06:00;;;;;;;3.28;2.80;;;12.00;99.90;;;;;;5020655;28;20042;-81
2023/07/07 00:08:26;;;;;;;4.35;3.33;;;12.00;99.90;;;;;;5016106;28;20048;-81
2023/07/07 00:10:53;;;;;;;4.22;2.97;;;12.00;99.90;;;;;;5021839;28;20037;-81
2023/07/07 00:13:20;;;;;;;4.57;3.00;;;11.90;99.90;;;;;;5006802;28;20136;-81
2023/07/07 00:15:46;;;;;;;3.38;3.08;;;11.90;99.90;;;;;;5023287;28;20046;-81
2023/07/07 00:18:26;;;;;;;3.92;3.10;;;11.90;99.90;;;;;;5017950;28;20049;-81
2023/07/07 00:20:53;;;;;;;4.13;3.10;;;11.80;99.90;;;;;;5018376;28;20041;-81
2023/07/07 00:23:19;;;;;;;5.10;3.10;;;11.80;99.90;;;;;;5018678;28;20469;-81
2023/07/07 00:25:44;;;;;;;4.75;3.00;;;11.80;99.90;;;;;;5008768;28;20033;-81
2023/07/07 00:28:10;;;;;;;4.35;3.25;;;11.70;99.90;;;;;;5019284;28;20046;-81
2023/07/07 00:30:35;;;;;;;5.78;3.10;;;11.70;99.90;;;;;;5045257;28;20053;-81
2023/07/07 00:33:07;;;;;;;4.82;3.13;;;11.70;99.90;;;;;;5047973;28;20069;-81
2023/07/07 00:35:33;;;;;;;5.30;2.95;;;11.60;99.90;;;;;;5023989;28;20432;-81
2023/07/07 00:37:58;;;;;;;4.63;3.15;;;11.70;99.90;;;;;;5015088;28;20375;-81
2023/07/07 00:40:27;;;;;;;5.85;3.40;;;11.60;99.90;;;;;;5018373;28;20082;-81
2023/07/07 00:42:52;;;;;;;4.70;3.38;;;11.60;99.90;;;;;;5038176;28;20461;-81
2023/07/07 00:45:20;;;;;;;4.25;3.40;;;11.50;99.90;;;;;;5026954;28;20036;-81
2023/07/07 00:47:58;;;;;;;5.20;3.15;;;11.50;99.90;;;;;;5021101;28;20050;-81
2023/07/07 00:50:26;;;;;;;4.85;3.33;;;11.50;99.90;;;;;;5018413;28;20028;-81
2023/07/07 00:52:52;;;;;;;6.07;3.28;;;11.50;99.90;;;;;;5031718;28;20439;-81
2023/07/07 00:55:53;;;;;;;4.03;2.90;;;11.50;99.90;;;;;;5019464;28;20036;-81
2023/07/07 00:58:22;;;;;;;4.55;3.15;;;11.40;99.90;;;;;;5017197;28;20047;-81
2023/07/07 01:01:00;;;;;;;3.85;2.92;;;11.40;99.90;;;;;;5018221;28;20774;-81
2023/07/07 01:03:37;;;;;;;4.85;3.42;;;11.40;99.90;;;;;;5019065;28;20087;-81
2023/07/07 01:06:07;;;;;;;4.25;3.10;;;11.40;99.90;;;;;;5047557;28;20110;-81
2023/07/07 01:08:36;;;;;;;5.22;3.22;;;11.30;99.90;;;;;;5000687;28;20199;-81
2023/07/07 01:11:02;;;;;;;4.65;3.20;;;11.30;99.90;;;;;;5022878;28;20033;-82
2023/07/07 01:13:28;;;;;;;5.05;3.45;;;11.30;99.90;;;;;;5002561;28;20111;-81
2023/07/07 01:16:05;;;;;;;5.30;3.15;;;11.30;99.90;;;;;;5003645;28;20549;-81
2023/07/07 01:18:58;;;;;;;4.50;2.83;;;11.30;99.90;;;;;;4998735;28;20047;-82
2023/07/07 01:21:54;;;;;;;5.18;3.15;;;11.30;99.90;;;;;;5014823;28;20124;-81
2023/07/07 01:24:28;;;;;;;4.32;3.17;;;11.30;99.90;;;;;;5012368;28;20131;-82
2023/07/07 01:27:27;;;;;;;6.75;3.58;;;11.30;99.90;;;;;;4999686;28;20454;-81
2023/07/07 01:30:15;;;;;;;4.30;3.10;;;11.30;99.90;;;;;;4999241;28;20460;-81
2023/07/07 01:32:43;;;;;;;5.45;2.92;;;11.20;99.90;;;;;;5021450;28;20026;-82
2023/07/07 01:35:13;;;;;;;3.97;3.35;;;11.10;99.90;;;;;;5020233;28;20087;-82
2023/07/07 01:37:39;;;;;;;3.58;2.70;;;11.10;99.90;;;;;;5018383;28;20052;-82
2023/07/07 01:40:06;;;;;;;4.40;3.40;;;11.10;99.90;;;;;;5021208;28;20542;-82
2023/07/07 01:42:43;;;;;;;4.15;3.17;;;11.10;99.90;;;;;;5019525;28;20053;-81
2023/07/07 01:45:23;;;;;;;5.63;3.30;;;11.00;99.90;;;;;;5014470;28;20083;-82
2023/07/07 01:48:02;;;;;;;4.05;3.20;;;11.10;99.90;;;;;;5039075;28;20122;-82
2023/07/07 01:50:31;;;;;;;4.88;3.15;;;11.10;99.90;;;;;;5036382;28;20501;-82
2023/07/07 01:53:05;;;;;;;5.97;3.22;;;11.00;99.90;;;;;;5003597;28;20432;-82
2023/07/07 01:55:34;;;;;;;4.35;3.30;;;11.00;99.90;;;;;;5003386;28;20030;-82
2023/07/07 01:58:03;;;;;;;4.47;3.53;;;11.00;99.90;;;;;;5004500;28;20925;-82
2023/07/07 02:00:31;;;;;;;8.77;3.30;;;11.00;99.90;;;;;;5022910;28;20041;-82
2023/07/07 02:02:59;;;;;;;3.80;3.30;;;11.00;99.90;;;;;;5014470;28;20041;-82
2023/07/07 02:05:26;;;;;;;4.97;3.85;;;11.00;99.90;;;;;;5001257;28;20342;-82
2023/07/07 02:07:52;;;;;;;3.75;3.20;;;11.00;99.90;;;;;;5017714;28;20069;-82
2023/07/07 02:10:18;;;;;;;4.38;3.22;;;10.90;99.90;;;;;;5021473;28;20092;-82
2023/07/07 02:12:43;;;;;;;5.88;3.40;;;10.90;99.90;;;;;;5006871;28;20041;-82
2023/07/07 02:15:09;;;;;;;4.85;3.60;;;11.00;99.90;;;;;;5035937;28;20033;-82
2023/07/07 02:17:35;;;;;;;8.43;4.50;;;11.00;99.90;;;;;;5021331;28;20862;-82
2023/07/07 02:20:01;;;;;;;5.10;3.85;;;11.00;99.90;;;;;;5002560;28;20497;-83
2023/07/07 02:22:26;;;;;;;9.70;4.20;;;11.00;99.90;;;;;;5020978;28;20485;-82
2023/07/07 02:24:52;;;;;;;6.38;4.65;;;11.00;99.90;;;;;;5024757;28;20546;-83
2023/07/07 02:27:20;;;;;;;9.48;4.95;;;11.00;99.90;;;;;;5024105;28;20094;-82
2023/07/07 02:29:46;;;;;;;9.70;5.53;;;11.00;99.90;;;;;;5030801;28;20451;-82
2023/07/07 02:32:12;;;;;;;9.73;5.90;;;11.00;99.90;;;;;;5024736;28;20037;-82
2023/07/07 02:34:47;;;;;;;8.48;5.68;;;11.10;99.90;;;;;;5031845;28;20127;-83
2023/07/07 02:37:23;;;;;;;8.25;5.72;;;11.10;99.90;;;;;;5007764;28;20075;-82
2023/07/07 02:39:48;;;;;;;9.07;6.43;;;11.20;99.90;;;;;;5017126;28;20163;-82
2023/07/07 02:42:15;;;;;;;8.18;6.10;;;11.20;99.90;;;;;;5021077;28;20057;-82
2023/07/07 02:44:41;;;;;;;8.57;6.10;;;11.20;99.90;;;;;;5024793;28;20049;-82
2023/07/07 02:47:08;;;;;;;12.05;7.25;;;11.20;99.90;;;;;;5003516;28;20041;-82
2023/07/07 02:49:34;;;;;;;11.90;7.78;;;11.20;99.90;;;;;;5021114;28;20113;-82
2023/07/07 02:52:00;;;;;;;13.32;7.18;;;11.20;99.90;;;;;;5017582;28;20439;-82
2023/07/07 02:54:26;;;;;;;9.85;6.85;;;11.20;99.90;;;;;;5008398;28;20037;-82
2023/07/07 02:56:53;;;;;;;13.13;7.45;;;11.20;99.90;;;;;;5038968;28;20476;-82
2023/07/07 02:59:19;;;;;;;12.13;7.80;;;11.30;99.90;;;;;;5023045;28;20049;-82
2023/07/07 03:01:45;;;;;;;12.45;8.48;;;11.20;99.90;;;;;;5003023;28;20037;-82
2023/07/07 03:04:12;;;;;;;11.55;7.93;;;11.30;99.90;;;;;;5051382;28;20492;-82
2023/07/07 03:06:39;;;;;;;11.05;8.30;;;11.30;99.90;;;;;;5037188;28;20088;-82
2023/07/07 03:09:05;;;;;;;12.90;8.48;;;11.30;99.90;;;;;;5001137;28;20118;-82
2023/07/07 03:11:31;;;;;;;13.57;8.70;;;11.40;99.90;;;;;;5022521;28;20065;-82
2023/07/07 03:13:57;;;;;;;12.68;8.20;;;11.40;99.90;;;;;;5024249;28;20037;-81
2023/07/07 03:16:32;;;;;;;12.60;9.30;;;11.40;99.90;;;;;;5035422;28;20052;-82
2023/07/07 03:19:04;;;;;;;16.92;9.85;;;11.40;99.90;;;;;;4993585;28;20433;-82
2023/07/07 03:21:31;;;;;;;16.77;9.77;;;11.50;99.90;;;;;;5017577;28;20044;-82
2023/07/07 03:23:58;;;;;;;15.45;9.23;;;11.50;99.90;;;;;;5013262;28;20037;-82
2023/07/07 03:26:26;;;;;;;17.70;10.05;;;11.50;99.90;;;;;;5045356;28;20037;-82
2023/07/07 03:28:52;;;;;;;14.00;9.98;;;11.50;99.90;;;;;;5017636;28;20302;-82
2023/07/07 03:31:26;;;;;;;16.13;9.35;;;11.50;99.90;;;;;;5032903;28;20041;-81
2023/07/07 03:33:56;;;;;;;15.23;10.77;;;11.50;99.90;;;;;;5020355;28;20516;-82
2023/07/07 03:36:25;;;;;;;15.48;10.18;;;11.50;99.90;;;;;;5020642;28;20120;-82
2023/07/07 03:38:50;;;;;;;14.48;10.38;;;11.50;99.90;;;;;;5021028;28;20037;-82
2023/07/07 03:41:19;;;;;;;16.70;10.38;;;11.60;99.90;;;;;;5026932;28;20361;-82
2023/07/07 03:43:45;;;;;;;15.40;9.98;;;11.60;99.90;;;;;;5004840;28;21257;-82
2023/07/07 03:46:12;;;;;;;15.18;9.98;;;11.60;99.90;;;;;;5033565;28;20191;-81
2023/07/07 03:48:38;;;;;;;16.35;10.50;;;11.70;99.90;;;;;;5027837;28;20488;-82
2023/07/07 03:51:04;;;;;;;14.65;10.80;;;11.70;99.90;;;;;;5021096;28;20041;-82
2023/07/07 03:53:31;;;;;;;16.90;10.82;;;11.70;99.90;;;;;;5009988;28;20098;-81
2023/07/07 03:55:57;;;;;;;16.83;10.82;;;11.70;99.90;;;;;;5004894;28;20048;-82
2023/07/07 03:58:25;;;;;;;14.65;11.15;;;11.80;99.90;;;;;;5022370;28;20029;-82
2023/07/07 04:00:50;;;;;;;15.60;11.20;;;11.80;99.90;;;;;;5047810;28;20132;-82
2023/07/07 04:03:18;;;;;;;16.77;11.15;;;11.90;99.90;;;;;;5003199;28;20030;-82
2023/07/07 04:05:49;;;;;;;15.73;10.90;;;11.90;99.90;;;;;;5001851;28;20064;-81
2023/07/07 04:08:21;;;;;;;18.10;11.32;;;11.90;99.90;;;;;;5013680;28;20038;-82
2023/07/07 04:11:09;;;;;;;16.05;11.35;;;12.00;99.90;;;;;;5017991;28;20365;-81
2023/07/07 04:13:40;;;;;;;17.73;11.48;;;12.10;99.90;;;;;;5020307;28;20563;-81
2023/07/07 04:16:12;;;;;;;17.30;11.73;;;12.20;99.90;;;;;;5023463;28;20045;-81
2023/07/07 04:18:39;;;;;;;19.13;11.98;;;12.20;99.90;;;;;;5018585;28;20111;-81
2023/07/07 04:21:08;;;;;;;19.13;12.13;;;12.30;99.90;;;;;;5046979;28;20033;-82
2023/07/07 04:23:41;;;;;;;17.00;11.48;;;12.30;99.90;;;;;;5015316;28;20037;-81
2023/07/07 04:26:08;;;;;;;17.95;11.65;;;12.40;99.90;;;;;;5019757;28;20124;-81
2023/07/07 04:28:37;;;;;;;16.02;11.98;;;12.50;99.90;;;;;;5017207;28;20057;-81
2023/07/07 04:31:05;;;;;;;16.58;11.60;;;12.60;99.90;;;;;;5007259;28;20440;-82
2023/07/07 04:33:32;;;;;;;16.67;11.23;;;12.70;99.90;;;;;;5015061;28;20045;-81
2023/07/07 04:36:01;;;;;;;15.45;12.13;;;12.80;99.90;;;;;;5004796;28;20049;-81
2023/07/07 04:38:32;;;;;;;16.33;11.57;;;12.90;99.90;;;;;;5017225;28;20513;-81
2023/07/07 04:41:13;;;;;;;15.40;12.18;;;13.00;99.90;;;;;;5019861;28;20466;-81
2023/07/07 04:43:41;;;;;;;20.40;12.73;;;13.20;99.90;;;;;;5016457;28;20046;-81
2023/07/07 04:46:08;;;;;;;19.60;12.80;;;13.20;99.90;;;;;;5006690;28;20056;-82
2023/07/07 04:48:34;;;;;;;17.48;12.07;;;13.30;99.90;;;;;;5003746;28;20033;-81
2023/07/07 04:51:02;;;;;;;17.63;12.23;;;13.40;99.90;;;;;;5024576;28;20032;-81
2023/07/07 04:53:29;;;;;;;20.55;13.10;;;13.50;99.90;;;;;;5012448;28;20045;-81
2023/07/07 04:55:56;;;;;;;19.77;11.77;;;13.60;99.90;;;;;;5016623;28;20072;-82
2023/07/07 04:58:25;;;;;;;19.20;12.65;;;13.70;99.90;;;;;;5002591;28;20599;-81
2023/07/07 05:01:11;;;;;;;17.25;12.75;;;13.80;99.90;;;;;;5016280;28;20196;-81
2023/07/07 05:03:38;;;;;;;17.70;11.93;;;13.90;99.90;;;;;;5046840;28;20408;-81
2023/07/07 05:06:04;;;;;;;20.75;13.45;;;14.00;99.90;;;;;;5009701;28;20072;-81
2023/07/07 05:08:33;;;;;;;18.52;12.85;;;14.10;99.90;;;;;;5035700;28;20094;-81
2023/07/07 05:11:00;;;;;;;17.08;12.68;;;14.20;99.90;;;;;;5022104;28;20036;-81
2023/07/07 05:13:26;;;;;;;19.52;13.18;;;14.30;99.90;;;;;;5002083;28;20281;-81
2023/07/07 05:16:04;;;;;;;21.17;13.13;;;14.40;99.90;;;;;;5002308;28;20072;-81
2023/07/07 05:18:29;;;;;;;20.10;13.13;;;14.50;99.90;;;;;;5017390;28;20291;-81
2023/07/07 05:20:58;;;;;;;14.98;12.00;;;14.70;99.90;;;;;;4999902;28;20291;-81
2023/07/07 05:23:24;;;;;;;18.85;12.65;;;14.70;99.90;;;;;;5015234;28;20434;-82
2023/07/07 05:25:50;;;;;;;17.80;12.95;;;14.90;99.90;;;;;;5018845;28;20051;-81
2023/07/07 05:28:16;;;;;;;18.08;12.48;;;14.90;99.90;;;;;;5014868;28;20091;-81
2023/07/07 05:30:42;;;;;;;19.92;12.48;;;15.00;99.90;;;;;;5019334;28;20029;-81
2023/07/07 05:33:09;;;;;;;18.77;12.15;;;15.20;99.90;;;;;;5004670;28;20044;-81
2023/07/07 05:35:34;;;;;;;19.38;12.30;;;15.30;99.90;;;;;;5017288;28;20128;-81
2023/07/07 05:38:01;;;;;;;18.35;12.43;;;15.40;99.90;;;;;;5007956;28;20120;-81
2023/07/07 05:40:27;;;;;;;18.17;12.25;;;15.50;99.90;;;;;;5017390;28;20038;-81
2023/07/07 05:42:56;;;;;;;15.27;11.50;;;15.60;99.90;;;;;;5022372;28;20033;-81
2023/07/07 05:45:23;;;;;;;16.13;12.13;;;15.70;99.90;;;;;;5034068;28;20442;-81
2023/07/07 05:47:49;;;;;;;17.48;12.18;;;15.80;99.90;;;;;;4999289;28;20056;-81
2023/07/07 05:50:14;;;;;;;17.42;11.77;;;15.90;99.90;;;;;;5003145;28;20488;-81
2023/07/07 05:52:40;;;;;;;15.38;10.93;;;16.10;99.90;;;;;;5047985;28;20129;-81
2023/07/07 05:55:06;;;;;;;13.95;10.88;;;16.10;99.90;;;;;;5015733;28;20082;-81
2023/07/07 05:57:32;;;;;;;19.33;11.32;;;16.30;99.90;;;;;;5020772;28;20079;-81
2023/07/07 05:59:58;;;;;;;16.85;10.95;;;16.30;99.90;;;;;;5018130;28;20128;-81
2023/07/07 06:02:23;;;;;;;22.65;11.10;;;16.40;99.90;;;;;;5005350;28;20095;-81
2023/07/07 06:04:49;;;;;;;16.90;11.60;;;16.60;99.90;;;;;;5033671;28;20561;-81
2023/07/07 06:07:15;;;;;;;15.00;10.35;;;16.60;99.90;;;;;;5001863;28;20099;-81
2023/07/07 06:09:40;;;;;;;14.75;10.30;;;16.80;99.90;;;;;;5012065;28;20040;-81
2023/07/07 06:12:07;;;;;;;14.30;9.93;;;16.80;99.90;;;;;;5026684;28;20303;-81
2023/07/07 06:14:41;;;;;;;13.68;9.73;;;16.90;99.90;;;;;;5027861;28;20117;-81
2023/07/07 06:17:07;;;;;;;12.27;9.70;;;17.10;99.90;;;;;;5034617;28;20059;-81
2023/07/07 06:19:32;;;;;;;14.30;9.27;;;17.20;99.90;;;;;;5006978;28;20041;-81
2023/07/07 06:21:58;;;;;;;15.00;9.32;;;17.20;99.90;;;;;;5017512;28;20304;-81
2023/07/07 06:24:24;;;;;;;11.77;9.27;;;17.40;99.90;;;;;;5035013;28;20199;-81
2023/07/07 06:26:49;;;;;;;10.68;8.45;;;17.50;99.90;;;;;;5041614;28;20407;-81
2023/07/07 06:29:15;;;;;;;13.68;8.85;;;17.60;99.90;;;;;;5028646;28;20301;-81
2023/07/07 06:31:40;;;;;;;15.57;8.90;;;17.80;99.90;;;;;;5050555;28;20170;-81
2023/07/07 06:34:06;;;;;;;14.07;8.90;;;17.80;99.90;;;;;;5027623;28;20051;-81
2023/07/07 06:36:32;;;;;;;16.42;8.50;;;17.80;99.90;;;;;;5004962;28;20156;-81
2023/07/07 06:38:57;;;;;;;12.20;8.38;;;18.00;99.90;;;;;;5019732;28;20069;-81
2023/07/07 06:41:24;;;;;;;11.10;7.70;;;18.20;99.90;;;;;;5025519;28;20102;-81
2023/07/07 06:43:50;;;;;;;11.93;7.20;;;18.30;99.90;;;;;;5034229;28;20052;-81
2023/07/07 06:46:17;;;;;;;10.15;7.65;;;18.40;99.90;;;;;;5029479;28;20042;-81
2023/07/07 06:48:43;;;;;;;12.27;7.85;;;18.40;99.90;;;;;;5035052;28;20400;-81
2023/07/07 06:51:10;;;;;;;11.40;7.03;;;18.50;99.90;;;;;;5034448;28;20290;-81
2023/07/07 06:53:35;;;;;;;9.32;6.65;;;18.50;99.90;;;;;;5032545;28;20141;-81
2023/07/07 06:56:01;;;;;;;10.75;6.32;;;18.70;99.90;;;;;;5032892;28;21222;-81
2023/07/07 06:58:27;;;;;;;11.70;6.57;;;18.80;99.90;;;;;;5017230;28;20049;-82
2023/07/07 07:00:52;;;;;;;10.15;6.80;;;18.90;99.90;;;;;;5009226;28;20044;-81
2023/07/07 07:03:22;;;;;;;10.18;6.13;;;19.00;99.90;;;;;;5026003;28;20030;-81
2023/07/07 07:05:48;;;;;;;10.07;6.43;;;19.10;99.90;;;;;;5017774;28;20485;-81
2023/07/07 07:08:17;;;;;;;9.63;6.22;;;19.20;99.90;;;;;;5012368;28;20039;-81
2023/07/07 07:10:43;;;;;;;9.93;6.05;;;19.30;99.90;;;;;;5034461;28;20025;-82
2023/07/07 07:13:08;;;;;;;9.32;6.32;;;19.40;99.90;;;;;;5026519;28;20471;-82
2023/07/07 07:15:34;;;;;;;9.35;6.00;;;19.50;99.90;;;;;;5018237;28;20196;-81
2023/07/07 07:18:00;;;;;;;9.23;5.45;;;19.50;99.90;;;;;;5021922;28;20539;-82
2023/07/07 07:20:25;;;;;;;8.27;5.72;;;19.80;99.90;;;;;;5022249;28;20041;-81
2023/07/07 07:22:51;;;;;;;7.15;5.40;;;19.80;99.90;;;;;;5011126;28;20954;-81
2023/07/07 07:25:17;;;;;;;7.55;5.47;;;19.80;99.90;;;;;;5017457;28;20037;-81
2023/07/07 07:27:43;;;;;;;8.02;5.40;;;20.10;99.90;;;;;;5026162;28;20047;-81
2023/07/07 07:30:15;;;;;;;7.30;4.30;;;20.20;99.90;;;;;;5007657;28;20338;-82
2023/07/07 07:32:41;;;;;;;5.63;3.92;;;20.40;99.90;;;;;;5048521;28;20045;-81
2023/07/07 07:35:08;;;;;;;8.43;5.05;;;20.40;99.90;;;;;;5020188;28;20044;-81
2023/07/07 07:37:34;;;;;;;7.85;4.45;;;20.50;99.90;;;;;;5023104;28;20646;-81
2023/07/07 07:40:00;;;;;;;8.25;4.00;;;20.50;99.90;;;;;;5016070;28;20041;-82
2023/07/07 07:42:25;;;;;;;8.13;4.18;;;20.50;99.90;;;;;;5051400;28;20057;-81
2023/07/07 07:44:51;;;;;;;8.18;4.35;;;20.60;99.90;;;;;;5030701;28;20114;-82
2023/07/07 07:47:19;;;;;;;6.05;3.63;;;20.80;99.90;;;;;;5048571;28;20100;-82
2023/07/07 07:49:45;;;;;;;5.93;3.22;;;20.80;99.90;;;;;;5047067;28;20045;-81
2023/07/07 07:52:11;;;;;;;5.60;3.20;;;20.80;99.90;;;;;;5003179;28;20432;-81
2023/07/07 07:54:39;;;;;;;5.72;3.72;;;21.00;99.90;;;;;;5035071;28;20060;-81
2023/07/07 07:57:05;;;;;;;6.93;3.35;;;21.10;99.90;;;;;;5023065;28;20069;-82
2023/07/07 07:59:31;;;;;;;4.05;3.00;;;21.10;99.90;;;;;;5038189;28;20445;-82
2023/07/07 08:01:57;;;;;;;6.63;3.38;;;21.20;99.90;;;;;;5024896;28;20125;-82
2023/07/07 08:04:23;;;;;;;6.13;3.15;;;21.40;99.90;;;;;;5025053;28;20043;-82
2023/07/07 08:06:54;;;;;;;5.60;2.88;;;21.40;99.90;;;;;;5034423;28;20046;-81
2023/07/07 08:09:23;;;;;;;8.40;3.55;;;21.60;99.90;;;;;;5022522;28;20064;-82
2023/07/07 08:11:48;;;;;;;6.18;3.03;;;21.70;99.90;;;;;;5022831;28;20158;-82
2023/07/07 08:14:15;;;;;;;4.38;2.75;;;21.70;99.90;;;;;;5030381;28;20041;-81
2023/07/07 08:16:41;;;;;;;5.40;3.00;;;21.80;99.90;;;;;;5015572;28;20132;-82
2023/07/07 08:19:06;;;;;;;6.75;2.90;;;21.80;99.90;;;;;;5030330;28;20043;-82
2023/07/07 08:21:32;;;;;;;3.58;2.42;;;22.00;99.90;;;;;;5019687;28;20394;-82
2023/07/07 08:23:58;;;;;;;8.88;3.38;;;22.20;99.90;;;;;;5004698;28;20103;-82
2023/07/07 08:26:24;;;;;;;6.25;3.35;;;22.10;99.90;;;;;;5034558;28;20187;-81
2023/07/07 08:28:49;;;;;;;4.03;2.72;;;22.30;99.90;;;;;;5019665;28;20037;-82
2023/07/07 08:31:15;;;;;;;4.13;2.50;;;22.30;99.90;;;;;;5051237;28;20338;-82
2023/07/07 08:33:44;;;;;;;3.70;2.45;;;22.40;99.90;;;;;;5007188;28;20052;-82
2023/07/07 08:36:10;;;;;;;6.13;2.63;;;22.40;99.90;;;;;;5040248;28;20489;-82
2023/07/07 08:38:36;;;;;;;6.60;2.67;;;22.60;99.90;;;;;;5001843;28;20053;-82
2023/07/07 08:41:02;;;;;;;12.77;3.40;;;22.70;99.90;;;;;;5023854;28;20491;-82
2023/07/07 08:43:29;;;;;;;5.72;2.42;;;22.80;99.90;;;;;;5021775;28;20167;-82
2023/07/07 08:46:25;;;;;;;4.78;2.38;;;22.90;99.90;;;;;;5026523;28;20326;-82
2023/07/07 08:49:17;;;;;;;6.45;2.92;;;22.90;99.90;;;;;;4997914;28;20517;-82
2023/07/07 08:51:53;;;;;;;5.68;2.60;;;23.00;99.90;;;;;;4998253;28;20053;-82
2023/07/07 08:54:27;;;;;;;3.80;2.33;;;23.10;99.90;;;;;;5020168;28;20548;-82
2023/07/07 08:57:06;;;;;;;;;;;23.20;99.90;;;;;;5030811;28;20104;-82
2023/07/07 09:00:00;;;;;;;5.90;2.50;;;23.40;99.90;;;;;;5023922;28;19927;-82
2023/07/07 09:03:01;;;;;;;6.90;2.58;;;23.40;6.10;;;;;;5020344;28;20049;-82
2023/07/07 09:05:44;;;;;;;4.57;2.70;;;23.40;99.90;;;;;;5018234;28;20043;-82
2023/07/07 09:08:15;;;;;;;4.43;2.47;;;23.60;1.00;;;;;;5016671;28;20481;-82
2023/07/07 09:11:06;;;;;;;3.25;2.30;;;23.60;99.90;;;;;;5028396;28;20029;-82
2023/07/07 09:13:35;;;;;;;5.28;2.55;;;23.60;99.90;;;;;;5017208;28;20037;-82
2023/07/07 09:16:11;;;;;;;5.10;2.45;;;23.70;99.90;;;;;;5016373;28;20061;-82
2023/07/07 09:18:52;;;;;;;3.42;2.47;;;23.70;1.00;;;;;;5019253;28;20497;-82
2023/07/07 09:21:36;;;;;;;3.30;2.40;;;24.00;1.00;;;;;;5009552;28;20481;-81
2023/07/07 09:24:09;;;;;;;5.90;2.38;;;24.00;1.00;;;;;;5019238;28;20053;-82
2023/07/07 09:26:36;;;;;;;4.65;2.00;;;24.00;99.90;;;;;;5045559;28;20038;-82
2023/07/07 09:29:14;;;;;;;3.42;2.50;;;24.10;99.90;;;;;;5018724;28;20064;-82
2023/07/07 09:31:42;;;;;;;6.95;2.80;;;24.10;99.90;;;;;;5049161;28;20088;-81
2023/07/07 09:34:10;;;;;;;4.35;2.42;;;24.30;99.90;;;;;;5039299;28;20430;-82
2023/07/07 09:36:41;;;;;;;3.88;2.50;;;24.20;99.90;;;;;;5022032;28;20049;-82
2023/07/07 09:39:25;;;;;;;3.80;2.38;;;24.40;99.90;;;;;;5048738;28;20508;-82
2023/07/07 09:42:18;;;;;;;3.40;2.05;;;24.50;99.90;;;;;;5020763;28;20065;-81
2023/07/07 09:44:59;;;;;;;3.53;2.20;;;24.60;99.90;;;;;;5033556;28;20044;-82
2023/07/07 09:47:49;;;;;;;3.17;2.30;;;24.70;99.90;;;;;;5019138;28;20475;-81
2023/07/07 09:50:23;;;;;;;7.50;2.67;;;24.50;99.90;;;;;;5018354;28;20040;-81
2023/07/07 09:52:54;;;;;;;2.93;2.00;;;24.60;1.00;;;;;;5015166;28;20091;-82
2023/07/07 09:55:23;;;;;;;5.32;2.30;;;24.70;99.90;;;;;;5046076;28;20092;-82
2023/07/07 09:58:05;;;;;;;4.07;2.28;;;24.90;99.90;;;;;;5017279;28;20560;-81
2023/07/07 10:00:34;;;;;;;3.28;2.10;;;25.10;1.00;;;;;;5042968;28;20127;-82
2023/07/07 10:03:04;;;;;;;3.53;2.58;;;25.20;1.00;;;;;;5020819;28;20041;-81
2023/07/07 10:05:34;;;;;;;3.35;2.25;;;25.00;99.90;;;;;;5045737;28;20257;-81
2023/07/07 10:08:05;;;;;;;4.53;2.47;;;25.00;99.90;;;;;;5030862;28;20037;-82
2023/07/07 10:10:31;;;;;;;3.45;2.40;;;25.00;99.90;;;;;;5024334;28;20041;-82
2023/07/07 10:13:00;;;;;;;4.72;2.20;;;25.20;99.90;;;;;;5017655;28;20052;-82
2023/07/07 10:15:40;;;;;;;6.22;2.08;;;25.30;99.90;;;;;;5028135;28;20041;-82
2023/07/07 10:18:19;;;;;;;3.33;1.95;;;25.40;99.90;;;;;;5019996;28;20577;-82
2023/07/07 10:20:46;;;;;;;4.70;2.50;;;25.60;99.90;;;;;;5028165;28;20110;-82
2023/07/07 10:23:13;;;;;;;5.38;2.72;;;25.30;99.90;;;;;;5011462;28;20249;-82
2023/07/07 10:25:43;;;;;;;2.65;2.28;;;25.30;99.90;;;;;;5048656;28;20037;-82
2023/07/07 10:28:16;;;;;;;4.75;2.55;;;25.30;99.90;;;;;;5020686;28;20527;-81
2023/07/07 10:30:43;;;;;;;7.43;2.42;;;25.70;99.90;;;;;;5016633;28;20358;-81
2023/07/07 10:33:11;;;;;;;3.13;2.25;;;25.60;99.90;;;;;;5048940;28;20337;-81
2023/07/07 10:35:37;;;;;;;3.22;2.30;;;25.80;99.90;;;;;;5022124;28;20247;-82
2023/07/07 10:38:04;;;;;;;5.43;2.72;;;25.90;99.90;;;;;;5031422;28;20060;-81
2023/07/07 10:40:31;;;;;;;5.00;2.30;;;25.80;99.90;;;;;;5034356;28;20475;-81
2023/07/07 10:42:58;;;;;;;5.22;3.22;;;25.60;99.90;;;;;;5016595;28;20053;-81
2023/07/07 10:45:24;;;;;;;3.50;2.55;;;25.70;41.70;;;;;;5050888;28;20314;-81
2023/07/07 10:47:53;;;;;;;5.90;2.38;;;26.00;67.90;;;;;;5021827;28;20095;-81
2023/07/07 10:50:22;;;;;;;4.47;2.53;;;25.90;74.90;;;;;;5019227;28;20443;-81
2023/07/07 10:53:28;;;;;;;4.15;2.42;;;26.10;19.90;;;;;;5018994;28;20041;-81
2023/07/07 10:56:03;;;;;;;4.30;2.13;;;26.10;1.00;;;;;;5038362;28;20497;-81
2023/07/07 10:58:59;;;;;;;4.55;2.40;;;26.10;1.00;;;;;;5029310;28;20480;-81
2023/07/07 11:01:36;;;;;;;4.55;2.28;;;26.00;1.00;;;;;;5017998;28;20043;-81
2023/07/07 11:04:33;;;;;;;3.55;2.28;;;25.60;1.00;;;;;;5022882;28;20049;-81
2023/07/07 11:07:08;;;;;;;3.88;2.45;;;25.00;1.00;;;;;;5049987;28;20052;-81
2023/07/07 11:09:52;;;;;;;4.65;2.45;;;24.80;1.00;;;;;;5006050;28;20636;-81
2023/07/07 11:12:46;;;;;;;6.30;2.75;;;25.90;1.00;;;;;;5048211;28;20088;-81
2023/07/07 11:15:39;;;;;;;3.28;2.30;;;26.50;33.40;;;;;;5021041;28;20041;-81
2023/07/07 11:18:14;;;;;;;5.13;2.47;;;26.90;1.00;;;;;;5000441;28;20052;-80
2023/07/07 11:20:55;;;;;;;5.78;2.22;;;27.10;1.00;;;;;;5007623;28;20033;-81
2023/07/07 11:23:26;;;;;;;4.78;2.60;;;26.70;99.90;;;;;;5010829;28;20458;-81
2023/07/07 11:26:18;;;;;;;3.55;2.47;;;27.40;1.00;;;;;;5051305;28;20038;-81
2023/07/07 11:29:05;;;;;;;3.90;2.30;;;27.20;99.90;;;;;;4990595;28;20049;-81
2023/07/07 11:31:52;;;;;;;3.97;2.58;;;27.30;99.90;;;;;;5034637;28;20282;-81
2023/07/07 11:34:29;;;;;;;3.47;2.22;;;27.20;99.90;;;;;;5035328;28;20424;-81
2023/07/07 11:37:27;;;;;;;3.58;2.25;;;27.30;99.90;;;;;;5033753;28;20049;-81
2023/07/07 11:40:19;;;;;;;4.32;2.78;;;27.50;99.90;;;;;;5035737;28;20041;-81
2023/07/07 11:43:09;;;;;;;2.75;2.20;;;28.00;99.90;;;;;;5050930;28;20081;-81
2023/07/07 11:45:52;;;;;;;6.75;2.50;;;28.00;99.90;;;;;;5015345;28;20059;-81
2023/07/07 11:48:36;;;;;;;4.57;2.30;;;28.20;99.90;;;;;;5019760;28;20120;-81
2023/07/07 11:51:23;;;;;;;4.82;2.50;;;28.20;99.90;;;;;;5029934;28;20460;-81
2023/07/07 11:54:29;;;;;;;3.67;2.40;;;28.00;99.90;;;;;;5023584;28;20036;-81
2023/07/07 11:57:13;;;;;;;6.60;2.55;;;27.60;99.90;;;;;;5010440;28;20057;-80
2023/07/07 11:59:52;;;;;;;3.53;2.17;;;27.90;99.90;;;;;;5047948;28;20045;-81
2023/07/07 12:02:43;;;;;;;3.40;2.40;;;28.30;99.90;;;;;;5050136;28;20138;-81
2023/07/07 12:05:13;;;;;;;7.35;2.30;;;27.40;99.90;;;;;;5020647;28;20167;-81
2023/07/07 12:07:54;;;;;;;5.35;2.35;;;27.10;99.90;;;;;;5038537;28;20044;-81
2023/07/07 12:10:26;;;;;;;3.35;2.28;;;27.90;99.90;;;;;;5049299;28;20052;-81
2023/07/07 12:13:11;;;;;;;4.03;2.28;;;28.00;99.90;;;;;;5020818;28;20121;-81
2023/07/07 12:15:40;;;;;;;3.58;2.40;;;28.40;99.90;;;;;;5019227;28;20060;-81
2023/07/07 12:18:31;;;;;;;6.43;2.40;;;28.70;99.90;;;;;;5035756;28;20037;-81
2023/07/07 12:21:17;;;;;;;3.92;2.35;;;29.20;99.90;;;;;;5048273;28;20049;-81
2023/07/07 12:23:46;;;;;;;;;;;28.60;99.90;;;;;;5012886;28;20210;-81
2023/07/07 12:26:25;;;;;;;5.95;2.45;;;28.80;99.90;;;;;;5009059;28;19921;-81
2023/07/07 12:28:55;;;;;;;3.83;2.22;;;29.00;99.90;;;;;;4998055;28;20034;-81
2023/07/07 12:31:23;;;;;;;3.47;2.28;;;29.10;99.90;;;;;;5025413;28;20431;-81
2023/07/07 12:33:51;;;;;;;4.97;2.30;;;29.50;99.90;;;;;;5010213;28;20044;-81
2023/07/07 12:36:22;;;;;;;3.78;2.33;;;29.00;99.90;;;;;;5025972;28;20040;-81
2023/07/07 12:38:50;;;;;;;6.32;2.50;;;29.00;99.90;;;;;;5003216;28;20112;-81
2023/07/07 12:41:22;;;;;;;3.97;2.25;;;28.80;99.90;;;;;;5047896;28;20354;-81
2023/07/07 12:44:01;;;;;;;3.65;2.30;;;29.20;99.90;;;;;;5024253;28;20045;-81
2023/07/07 12:46:28;;;;;;;4.53;2.50;;;29.50;99.90;;;;;;5012025;28;20072;-81
2023/07/07 12:49:00;;;;;;;4.45;2.60;;;28.80;99.90;;;;;;5023760;28;20094;-81
2023/07/07 12:51:30;;;;;;;5.25;2.35;;;29.30;99.90;;;;;;5018417;28;20134;-81
2023/07/07 12:53:56;;;;;;;5.70;2.60;;;28.90;99.90;;;;;;5030597;28;20037;-81
2023/07/07 12:56:27;;;;;;;3.30;2.20;;;29.50;99.90;;;;;;5001833;28;20052;-81
2023/07/07 12:58:55;;;;;;;2.97;2.03;;;29.40;99.90;;;;;;5024685;28;20056;-81
2023/07/07 13:01:36;;;;;;;5.05;2.83;;;29.50;99.90;;;;;;5007778;28;20040;-81
2023/07/07 13:04:11;;;;;;;3.58;2.38;;;29.40;99.90;;;;;;5021795;28;20064;-81